Current Weather

Lewis University

Chicago/Romeoville, Illinois (KLOT)

Report from: Friday, February 3, 2023 11:55 PM CST
Current time: Saturday, February 4, 2023 12:39 AM CST

Nearby weather
Weather history
Weather forecast

Temperature-12.0°C (10.4°F)
Wind chill-19.1°C (-2.4°F)
Dew point-19.0°C (-2.2°F)
Winds 8 kts (4.1 m/s, 9.2 mph) South-Southeast (150°)
Visibility10 mi. (16.1 km)
Clouds Ceiling: Overcast 4,200 ft. (1,280 m)
Altimeter30.48 in.Hg (1032 mB)
Relative humidity56 %
Density altitude-4,013 ft. (-1,223 m)
Remarks Fully automated report
Automated weather observing station with precipitation discriminator
Flight conditions Visual Meteorological Conditions
Raw dataKLOT 040555Z AUTO 15008KT 10SM OVC042 M12/M19 A3048 RMK AO2
An unhandled exception has occurred. See browser dev tools for details. Reload 🗙